createdAt,value
2022-10-22T00:00:10.171Z,3.43
2022-10-22T00:02:37.853Z,2.80
2022-10-22T00:05:05.485Z,2.67
2022-10-22T00:07:32.924Z,2.63
2022-10-22T00:10:00.339Z,1.70
2022-10-22T00:12:28.065Z,2.00
2022-10-22T00:14:55.547Z,1.73
2022-10-22T00:17:22.970Z,1.40
2022-10-22T00:19:50.415Z,1.30
2022-10-22T00:22:17.787Z,2.10
2022-10-22T00:24:45.415Z,1.70
2022-10-22T00:27:13.136Z,1.20
2022-10-22T00:29:40.538Z,1.40
2022-10-22T00:32:08.322Z,1.70
2022-10-22T00:34:35.952Z,1.33
2022-10-22T00:37:03.414Z,1.03
2022-10-22T00:39:30.912Z,1.20
2022-10-22T00:41:58.809Z,1.80
2022-10-22T00:44:45.100Z,1.30
2022-10-22T00:47:12.524Z,1.40
2022-10-22T00:49:39.981Z,1.73
2022-10-22T00:52:07.599Z,1.23
2022-10-22T00:54:35.539Z,1.60
2022-10-22T00:57:02.950Z,1.60
2022-10-22T00:59:30.400Z,1.60
2022-10-22T01:01:57.916Z,1.70
2022-10-22T01:04:25.329Z,1.60
2022-10-22T01:06:52.880Z,1.70
2022-10-22T01:09:39.103Z,2.10
2022-10-22T01:12:19.452Z,2.00
2022-10-22T01:14:57.292Z,2.50
2022-10-22T01:17:29.386Z,2.10
2022-10-22T01:20:26.074Z,2.30
2022-10-22T01:23:03.772Z,2.70
2022-10-22T01:25:48.856Z,2.80
2022-10-22T01:28:23.804Z,2.87
2022-10-22T01:30:52.264Z,2.57
2022-10-22T01:33:20.572Z,3.30
2022-10-22T01:35:48.179Z,3.90
2022-10-22T01:38:18.312Z,5.20
2022-10-22T01:40:46.412Z,3.63
2022-10-22T01:43:13.976Z,3.00
2022-10-22T01:45:59.224Z,3.93
2022-10-22T01:48:55.861Z,4.70
2022-10-22T01:51:31.236Z,3.93
2022-10-22T01:54:16.927Z,4.17
2022-10-22T01:56:57.409Z,4.50
2022-10-22T01:59:40.724Z,5.60
2022-10-22T02:02:34.408Z,4.00
2022-10-22T02:05:08.102Z,5.60
2022-10-22T02:07:38.601Z,5.13
2022-10-22T02:10:07.670Z,5.90
2022-10-22T02:12:35.987Z,6.10
2022-10-22T02:15:04.009Z,5.03
2022-10-22T02:17:32.713Z,5.83
2022-10-22T02:20:02.498Z,5.47
2022-10-22T02:22:30.294Z,5.50
2022-10-22T02:24:57.658Z,7.10
2022-10-22T02:27:32.713Z,6.63
2022-10-22T02:30:09.094Z,6.50
2022-10-22T02:32:50.995Z,9.00
2022-10-22T02:35:20.200Z,7.60
2022-10-22T02:37:47.892Z,7.17
2022-10-22T02:40:15.575Z,6.23
2022-10-22T02:42:43.171Z,7.13
2022-10-22T02:45:11.049Z,6.03
2022-10-22T02:47:38.449Z,6.00
2022-10-22T02:50:09.427Z,4.67
2022-10-22T02:52:38.478Z,4.07
2022-10-22T02:55:06.791Z,2.83
2022-10-22T02:57:34.287Z,2.90
2022-10-22T03:00:01.713Z,2.80
2022-10-22T03:02:29.107Z,2.50
2022-10-22T03:04:56.535Z,2.53
2022-10-22T03:07:23.946Z,2.70
2022-10-22T03:09:51.375Z,2.70
2022-10-22T03:12:18.752Z,2.37
2022-10-22T03:14:46.118Z,2.93
2022-10-22T03:17:14.125Z,2.90
2022-10-22T03:19:42.275Z,3.00
2022-10-22T03:22:14.661Z,2.60
2022-10-22T03:24:47.077Z,2.70
2022-10-22T03:27:16.135Z,2.57
2022-10-22T03:29:43.912Z,2.60
2022-10-22T03:32:11.340Z,2.00
2022-10-22T03:34:38.721Z,2.63
2022-10-22T03:37:06.562Z,2.70
2022-10-22T03:39:35.015Z,3.03
2022-10-22T03:42:02.958Z,1.97
2022-10-22T03:44:30.697Z,2.73
2022-10-22T03:47:00.279Z,2.20
2022-10-22T03:49:30.198Z,2.00
2022-10-22T03:51:57.640Z,2.33
2022-10-22T03:54:25.067Z,2.30
2022-10-22T03:56:52.450Z,1.83
2022-10-22T03:59:19.881Z,1.80
2022-10-22T04:01:47.276Z,1.80
2022-10-22T04:04:14.669Z,2.10
2022-10-22T04:06:42.043Z,2.27
2022-10-22T04:09:09.538Z,2.20
2022-10-22T04:11:36.966Z,2.37
2022-10-22T04:14:04.333Z,2.10
2022-10-22T04:16:32.989Z,1.67
2022-10-22T04:19:00.355Z,2.20
2022-10-22T04:21:27.732Z,2.00
2022-10-22T04:23:55.141Z,2.10
2022-10-22T04:26:22.518Z,1.40
2022-10-22T04:28:50.703Z,1.90
2022-10-22T04:31:19.401Z,1.87
2022-10-22T04:33:47.015Z,1.20
2022-10-22T04:36:18.988Z,1.40
2022-10-22T04:38:47.189Z,1.30
2022-10-22T04:41:22.064Z,1.40
2022-10-22T04:43:49.727Z,1.67
2022-10-22T04:46:18.126Z,1.83
2022-10-22T04:48:46.264Z,2.40
2022-10-22T04:51:14.962Z,2.23
2022-10-22T04:53:42.483Z,2.10
2022-10-22T04:56:39.157Z,1.80
2022-10-22T04:59:08.137Z,2.13
2022-10-22T05:01:42.964Z,2.10
2022-10-22T05:04:15.931Z,1.90
2022-10-22T05:06:43.352Z,2.13
2022-10-22T05:09:18.127Z,1.50
2022-10-22T05:11:48.679Z,1.50
2022-10-22T05:14:20.934Z,1.40
2022-10-22T05:16:49.290Z,1.60
2022-10-22T05:19:21.928Z,1.73
2022-10-22T05:21:49.350Z,1.67
2022-10-22T05:24:17.016Z,1.60
2022-10-22T05:26:44.426Z,1.30
2022-10-22T05:29:11.887Z,1.10
2022-10-22T05:31:39.328Z,1.50
2022-10-22T05:34:06.708Z,1.10
2022-10-22T05:36:34.424Z,1.60
2022-10-22T05:39:01.895Z,1.80
2022-10-22T05:41:29.599Z,1.50
2022-10-22T05:43:57.925Z,1.60
2022-10-22T05:46:26.576Z,1.40
2022-10-22T05:49:01.739Z,1.70
2022-10-22T05:51:30.189Z,1.40
2022-10-22T05:53:59.040Z,1.50
2022-10-22T05:56:27.479Z,1.23
2022-10-22T05:58:54.945Z,2.13
2022-10-22T06:01:23.940Z,1.30
2022-10-22T06:03:53.855Z,1.60
2022-10-22T06:06:33.050Z,1.37
2022-10-22T06:09:01.946Z,2.60
2022-10-22T06:11:32.527Z,1.20
2022-10-22T06:14:02.504Z,1.60
2022-10-22T06:16:30.394Z,1.47
2022-10-22T06:18:59.498Z,1.30
2022-10-22T06:21:26.903Z,1.40
2022-10-22T06:23:56.480Z,1.50
2022-10-22T06:26:24.073Z,1.37
2022-10-22T06:28:51.493Z,1.10
2022-10-22T06:31:18.872Z,1.17
2022-10-22T06:33:46.256Z,1.60
2022-10-22T06:36:14.799Z,1.40
2022-10-22T06:38:42.581Z,1.40
2022-10-22T06:41:14.389Z,1.30
2022-10-22T06:43:45.272Z,1.10
2022-10-22T06:46:14.924Z,1.10
2022-10-22T06:48:50.409Z,1.47
2022-10-22T06:51:17.927Z,1.27
2022-10-22T06:53:45.313Z,1.40
2022-10-22T06:56:14.234Z,1.10
2022-10-22T06:58:41.894Z,1.10
2022-10-22T07:01:10.581Z,1.23
2022-10-22T07:03:38.849Z,1.40
2022-10-22T07:06:07.764Z,1.23
2022-10-22T07:08:35.224Z,1.37
2022-10-22T07:11:10.118Z,1.30
2022-10-22T07:13:37.581Z,1.10
2022-10-22T07:16:05.345Z,1.23
2022-10-22T07:18:33.092Z,1.23
2022-10-22T07:21:00.767Z,1.80
2022-10-22T07:23:28.398Z,1.17
2022-10-22T07:28:28.740Z,1.43
2022-10-22T07:30:56.097Z,1.10
2022-10-22T07:33:23.572Z,1.10
2022-10-22T07:35:50.989Z,1.13
2022-10-22T07:38:18.455Z,1.10
2022-10-22T07:40:45.894Z,1.20
2022-10-22T07:43:13.214Z,2.67
2022-10-22T07:45:41.316Z,1.10
2022-10-22T07:48:08.722Z,1.10
2022-10-22T07:50:36.336Z,0.93
2022-10-22T07:53:03.797Z,1.10
2022-10-22T07:55:31.385Z,0.90
2022-10-22T07:57:58.744Z,1.20
2022-10-22T08:00:26.178Z,0.93
2022-10-22T08:02:53.836Z,1.10
2022-10-22T08:05:21.270Z,1.00
2022-10-22T08:07:48.691Z,1.00
2022-10-22T08:10:16.120Z,1.07
2022-10-22T08:12:44.086Z,1.30
2022-10-22T08:15:11.783Z,0.90
2022-10-22T08:17:39.720Z,1.00
2022-10-22T08:20:07.876Z,1.10
2022-10-22T08:22:35.275Z,1.20
2022-10-22T08:25:02.820Z,1.47
2022-10-22T08:27:30.301Z,1.20
2022-10-22T08:29:57.682Z,1.17
2022-10-22T08:32:25.130Z,1.23
2022-10-22T08:34:52.616Z,1.00
2022-10-22T08:37:19.998Z,0.87
2022-10-22T08:39:47.545Z,1.10
2022-10-22T08:42:34.383Z,2.37
2022-10-22T08:45:12.722Z,1.10
2022-10-22T08:47:49.885Z,1.10
2022-10-22T08:50:20.186Z,1.03
2022-10-22T08:52:48.880Z,1.27
2022-10-22T08:55:16.713Z,1.10
2022-10-22T08:57:52.952Z,1.43
2022-10-22T09:00:31.802Z,1.30
2022-10-22T09:03:18.121Z,1.87
2022-10-22T09:06:11.536Z,1.27
2022-10-22T09:08:39.911Z,0.90
2022-10-22T09:11:27.609Z,1.37
2022-10-22T09:13:56.018Z,1.00
2022-10-22T09:16:43.641Z,0.93
2022-10-22T09:19:17.995Z,1.00
2022-10-22T09:22:03.962Z,1.10
2022-10-22T09:24:41.587Z,1.80
2022-10-22T09:27:12.499Z,1.10
2022-10-22T09:29:39.967Z,0.67
2022-10-22T09:32:07.729Z,0.90
2022-10-22T09:34:35.257Z,1.10
2022-10-22T09:37:07.479Z,1.90
2022-10-22T09:39:37.847Z,1.00
2022-10-22T09:42:05.520Z,1.17
2022-10-22T09:44:37.431Z,0.90
2022-10-22T09:47:05.745Z,1.60
2022-10-22T09:49:34.502Z,0.83
2022-10-22T09:52:02.179Z,1.33
2022-10-22T09:54:47.766Z,0.80
2022-10-22T09:57:22.175Z,2.37
2022-10-22T09:59:50.343Z,1.17
2022-10-22T10:02:39.213Z,1.00
2022-10-22T10:05:08.066Z,1.50
2022-10-22T10:07:36.442Z,1.17
2022-10-22T10:10:04.274Z,0.93
2022-10-22T10:13:01.389Z,0.80
2022-10-22T10:15:31.211Z,0.87
2022-10-22T10:18:51.902Z,1.10
2022-10-22T10:21:57.912Z,0.87
2022-10-22T10:24:51.653Z,0.97
2022-10-22T10:27:35.030Z,1.00
2022-10-22T10:30:25.925Z,1.10
2022-10-22T10:33:06.278Z,0.80
2022-10-22T10:36:12.550Z,0.77
2022-10-22T10:39:00.957Z,0.90
2022-10-22T10:41:47.217Z,1.00
2022-10-22T10:44:29.970Z,1.00
2022-10-22T10:47:26.525Z,0.90
2022-10-22T10:49:55.473Z,0.80
2022-10-22T10:52:32.451Z,1.07
2022-10-22T10:55:18.302Z,0.90
2022-10-22T10:58:11.066Z,0.80
2022-10-22T11:00:44.102Z,0.70
2022-10-22T11:03:34.702Z,1.00
2022-10-22T11:06:13.007Z,1.00
2022-10-22T11:08:45.553Z,1.00
2022-10-22T11:14:09.134Z,0.97
2022-10-22T11:16:48.515Z,0.90
2022-10-22T11:19:50.283Z,0.70
2022-10-22T11:22:36.435Z,0.90
2022-10-22T11:25:15.340Z,0.80
2022-10-22T11:28:06.583Z,0.70
2022-10-22T11:30:37.891Z,0.87
2022-10-22T11:33:07.983Z,1.20
2022-10-22T11:35:36.676Z,1.27
2022-10-22T11:38:05.736Z,1.00
2022-10-22T11:40:34.530Z,1.30
2022-10-22T11:43:12.679Z,1.17
2022-10-22T11:45:42.064Z,0.70
2022-10-22T11:48:17.751Z,1.13
2022-10-22T11:50:47.238Z,0.67
2022-10-22T11:53:19.568Z,0.90
2022-10-22T11:55:51.875Z,0.73
2022-10-22T11:58:38.379Z,0.80
2022-10-22T12:01:25.887Z,0.80
2022-10-22T12:04:13.719Z,0.80
2022-10-22T12:06:54.711Z,0.70
2022-10-22T12:09:23.789Z,0.90
2022-10-22T12:11:51.673Z,0.90
2022-10-22T12:14:32.228Z,0.80
2022-10-22T12:17:03.736Z,0.70
2022-10-22T12:19:37.057Z,0.70
2022-10-22T12:22:24.907Z,1.00
2022-10-22T12:25:01.006Z,0.90
2022-10-22T12:27:40.581Z,0.80
2022-10-22T12:30:25.629Z,0.85
2022-10-22T12:32:55.301Z,0.88
2022-10-22T12:35:32.215Z,0.70
2022-10-22T12:38:01.720Z,1.08
2022-10-22T12:40:30.256Z,0.80
2022-10-22T12:42:59.707Z,1.00
2022-10-22T12:45:28.362Z,1.00
2022-10-22T12:47:59.944Z,0.60
2022-10-22T12:50:33.294Z,0.80
2022-10-22T12:53:00.930Z,0.80
2022-10-22T12:55:28.363Z,1.20
2022-10-22T12:57:55.781Z,0.80
2022-10-22T13:00:25.067Z,0.70
2022-10-22T13:02:53.229Z,0.70
2022-10-22T13:05:27.288Z,0.80
2022-10-22T13:08:03.217Z,0.80
2022-10-22T13:10:38.404Z,0.80
2022-10-22T13:13:08.867Z,0.85
2022-10-22T13:15:37.985Z,0.75
2022-10-22T13:18:06.883Z,0.60
2022-10-22T13:20:37.473Z,1.02
2022-10-22T13:23:19.942Z,0.80
2022-10-22T13:25:57.498Z,0.70
2022-10-22T13:28:25.336Z,0.77
2022-10-22T13:30:56.734Z,1.00
2022-10-22T13:33:29.978Z,1.00
2022-10-22T13:35:57.614Z,0.90
2022-10-22T13:38:26.268Z,0.90
2022-10-22T13:40:53.744Z,0.90
2022-10-22T13:43:21.194Z,1.52
2022-10-22T13:45:49.962Z,0.80
2022-10-22T13:48:19.312Z,0.70
2022-10-22T13:50:47.180Z,0.80
2022-10-22T13:53:18.907Z,0.90
2022-10-22T13:55:47.665Z,0.73
2022-10-22T13:58:19.894Z,0.93
2022-10-22T14:00:55.821Z,0.75
2022-10-22T14:03:30.685Z,0.88
2022-10-22T14:05:57.979Z,0.80
2022-10-22T14:08:26.479Z,0.80
2022-10-22T14:10:54.469Z,0.80
2022-10-22T14:13:21.929Z,1.00
2022-10-22T14:15:51.470Z,0.75
2022-10-22T14:18:26.515Z,0.75
2022-10-22T14:20:58.554Z,0.82
2022-10-22T14:23:28.773Z,0.60
2022-10-22T14:25:56.560Z,0.77
2022-10-22T14:28:23.601Z,0.70
2022-10-22T14:30:51.465Z,0.80
2022-10-22T14:33:29.036Z,0.95
2022-10-22T14:36:00.614Z,0.80
2022-10-22T14:38:28.510Z,0.90
2022-10-22T14:40:55.900Z,0.95
2022-10-22T14:43:25.746Z,0.70
2022-10-22T14:45:52.990Z,0.57
2022-10-22T14:50:52.283Z,0.80
2022-10-22T14:53:19.336Z,0.70
2022-10-22T14:55:49.175Z,0.90
2022-10-22T14:58:16.662Z,0.90
2022-10-22T15:00:43.790Z,0.77
2022-10-22T15:03:11.622Z,0.70
2022-10-22T15:05:44.668Z,0.70
2022-10-22T15:08:14.637Z,0.70
2022-10-22T15:10:41.813Z,0.93
2022-10-22T15:13:09.297Z,1.02
2022-10-22T15:15:39.487Z,0.73
2022-10-22T15:18:07.333Z,0.80
2022-10-22T15:20:34.492Z,0.80
2022-10-22T15:23:01.491Z,0.80
2022-10-22T15:25:29.177Z,1.00
2022-10-22T15:28:01.802Z,0.70
2022-10-22T15:30:34.682Z,0.77
2022-10-22T15:33:02.316Z,0.73
2022-10-22T15:35:29.318Z,0.60
2022-10-22T15:37:56.369Z,0.70
2022-10-22T15:40:23.404Z,1.38
2022-10-22T15:42:50.539Z,1.02
2022-10-22T15:45:17.581Z,0.90
2022-10-22T15:47:48.636Z,2.67
2022-10-22T15:50:16.427Z,2.13
2022-10-22T15:52:43.570Z,1.80
2022-10-22T15:55:10.816Z,1.30
2022-10-22T15:57:39.269Z,1.60
2022-10-22T16:00:07.886Z,1.50
2022-10-22T16:02:42.566Z,0.90
2022-10-22T16:05:10.476Z,1.27
2022-10-22T16:07:37.937Z,0.90
2022-10-22T16:10:07.715Z,1.20
2022-10-22T16:12:36.156Z,3.20
2022-10-22T16:15:03.567Z,2.23
2022-10-22T16:17:30.971Z,1.97
2022-10-22T16:19:58.498Z,1.80
2022-10-22T16:22:25.921Z,1.20
2022-10-22T16:24:53.338Z,1.00
2022-10-22T16:27:20.732Z,1.00
2022-10-22T16:29:48.089Z,0.77
2022-10-22T16:32:16.637Z,1.10
2022-10-22T16:34:44.132Z,0.97
2022-10-22T16:37:11.541Z,0.97
2022-10-22T16:39:39.053Z,0.87
2022-10-22T16:42:06.787Z,0.90
2022-10-22T16:44:34.243Z,0.90
2022-10-22T16:47:01.650Z,1.37
2022-10-22T16:49:29.092Z,1.23
2022-10-22T16:51:56.461Z,1.10
2022-10-22T16:54:23.920Z,1.13
2022-10-22T16:56:51.348Z,0.90
2022-10-22T16:59:18.870Z,1.20
2022-10-22T17:01:46.302Z,1.23
2022-10-22T17:04:13.746Z,1.17
2022-10-22T17:06:41.177Z,1.93
2022-10-22T17:09:08.731Z,1.63
2022-10-22T17:11:39.176Z,1.93
2022-10-22T17:14:08.796Z,1.30
2022-10-22T17:16:36.196Z,1.30
2022-10-22T17:19:05.065Z,1.03
2022-10-22T17:21:33.937Z,0.90
2022-10-22T17:24:01.623Z,1.20
2022-10-22T17:26:29.112Z,1.20
2022-10-22T17:28:56.688Z,1.70
2022-10-22T17:31:27.921Z,1.00
2022-10-22T17:33:56.535Z,1.37
2022-10-22T17:36:24.763Z,1.00
2022-10-22T17:38:54.039Z,0.80
2022-10-22T17:41:26.022Z,1.60
2022-10-22T17:43:53.595Z,1.10
2022-10-22T17:46:22.082Z,1.30
2022-10-22T17:48:50.724Z,1.07
2022-10-22T17:51:18.715Z,1.20
2022-10-22T17:53:46.766Z,1.13
2022-10-22T17:56:15.640Z,0.90
2022-10-22T17:58:43.167Z,1.13
2022-10-22T18:01:47.765Z,0.90
2022-10-22T18:04:16.513Z,1.03
2022-10-22T18:06:44.159Z,0.90
2022-10-22T18:09:17.271Z,1.27
2022-10-22T18:11:46.705Z,1.20
2022-10-22T18:14:14.087Z,0.97
2022-10-22T18:16:42.349Z,1.57
2022-10-22T18:19:10.751Z,1.00
2022-10-22T18:21:38.209Z,1.03
2022-10-22T18:24:06.040Z,1.43
2022-10-22T18:26:33.414Z,1.33
2022-10-22T18:29:00.981Z,1.00
2022-10-22T18:31:30.474Z,1.00
2022-10-22T18:33:58.646Z,1.50
2022-10-22T18:36:27.708Z,1.20
2022-10-22T18:38:56.669Z,2.90
2022-10-22T18:41:24.640Z,2.40
2022-10-22T18:43:52.791Z,1.57
2022-10-22T18:46:20.483Z,1.10
2022-10-22T18:48:48.044Z,1.07
2022-10-22T18:51:15.941Z,1.27
2022-10-22T18:53:53.710Z,1.20
2022-10-22T18:56:31.130Z,1.37
2022-10-22T18:58:58.634Z,1.10
2022-10-22T19:01:29.436Z,1.40
2022-10-22T19:03:57.158Z,1.10
2022-10-22T19:06:34.331Z,1.10
2022-10-22T19:09:04.722Z,1.30
2022-10-22T19:11:33.128Z,1.53
2022-10-22T19:14:00.781Z,1.50
2022-10-22T19:16:28.918Z,1.23
2022-10-22T19:19:04.619Z,1.30
2022-10-22T19:21:32.273Z,1.53
2022-10-22T19:24:00.271Z,1.33
2022-10-22T19:26:28.883Z,1.00
2022-10-22T19:28:57.553Z,1.50
2022-10-22T19:31:26.602Z,1.87
2022-10-22T19:33:57.653Z,1.67
2022-10-22T19:36:27.600Z,1.30
2022-10-22T19:38:55.241Z,1.40
2022-10-22T19:41:23.493Z,1.50
2022-10-22T19:43:51.817Z,1.80
2022-10-22T19:46:19.522Z,1.97
2022-10-22T19:48:47.227Z,2.07
2022-10-22T19:51:25.621Z,1.70
2022-10-22T19:53:58.385Z,1.53
2022-10-22T19:56:25.888Z,1.47
2022-10-22T19:58:53.337Z,2.37
2022-10-22T20:01:21.044Z,1.67
2022-10-22T20:03:49.437Z,1.50
2022-10-22T20:06:17.834Z,2.33
2022-10-22T20:08:45.945Z,1.57
2022-10-22T20:11:23.901Z,2.23
2022-10-22T20:13:52.654Z,1.33
2022-10-22T20:16:23.229Z,1.80
2022-10-22T20:18:50.935Z,2.27
2022-10-22T20:21:21.454Z,1.90
2022-10-22T20:23:51.904Z,2.13
2022-10-22T20:26:19.802Z,1.50
2022-10-22T20:28:47.263Z,1.63
2022-10-22T20:31:16.147Z,2.13
2022-10-22T20:33:43.699Z,2.00
2022-10-22T20:36:15.011Z,1.50
2022-10-22T20:38:43.392Z,1.17
2022-10-22T20:41:15.080Z,1.40
2022-10-22T20:43:44.439Z,1.67
2022-10-22T20:46:31.894Z,1.43
2022-10-22T20:49:00.682Z,1.60
2022-10-22T20:51:28.149Z,1.70
2022-10-22T20:53:55.593Z,1.50
2022-10-22T20:56:23.644Z,1.80
2022-10-22T20:58:56.672Z,1.40
2022-10-22T21:01:24.267Z,1.50
2022-10-22T21:03:53.361Z,1.90
2022-10-22T21:06:23.304Z,1.97
2022-10-22T21:08:51.140Z,2.57
2022-10-22T21:11:19.114Z,2.53
2022-10-22T21:13:46.834Z,2.47
2022-10-22T21:16:15.094Z,2.87
2022-10-22T21:18:42.499Z,2.57
2022-10-22T21:21:10.666Z,2.13
2022-10-22T21:23:38.268Z,2.23
2022-10-22T21:26:05.995Z,1.50
2022-10-22T21:28:35.575Z,1.70
2022-10-22T21:31:04.083Z,1.97
2022-10-22T21:33:31.849Z,1.80
2022-10-22T21:35:59.241Z,2.17
2022-10-22T21:38:26.664Z,2.10
2022-10-22T21:40:54.226Z,1.90
2022-10-22T21:43:21.612Z,2.07
2022-10-22T21:45:49.004Z,1.77
2022-10-22T21:48:16.478Z,1.80
2022-10-22T21:50:44.455Z,2.33
2022-10-22T21:53:12.340Z,2.13
2022-10-22T21:55:42.475Z,1.93
2022-10-22T21:58:10.025Z,1.80
2022-10-22T22:00:37.532Z,2.30
2022-10-22T22:03:07.694Z,1.63
2022-10-22T22:05:35.247Z,1.80
2022-10-22T22:08:02.666Z,2.10
2022-10-22T22:10:30.698Z,2.53
2022-10-22T22:12:58.088Z,2.10
2022-10-22T22:15:25.519Z,2.07
2022-10-22T22:17:53.140Z,2.17
2022-10-22T22:20:20.558Z,1.90
2022-10-22T22:22:47.917Z,2.00
2022-10-22T22:25:15.410Z,2.87
2022-10-22T22:27:43.205Z,2.33
2022-10-22T22:30:11.314Z,2.33
2022-10-22T22:32:38.749Z,2.33
2022-10-22T22:35:06.388Z,2.30
2022-10-22T22:37:33.806Z,2.33
2022-10-22T22:40:01.271Z,2.70
2022-10-22T22:42:28.686Z,2.53
2022-10-22T22:44:56.075Z,2.67
2022-10-22T22:47:23.483Z,2.27
2022-10-22T22:49:50.869Z,2.00
2022-10-22T22:52:18.360Z,3.20
2022-10-22T22:54:45.880Z,2.50
2022-10-22T22:57:14.313Z,2.10
2022-10-22T22:59:41.827Z,2.10
2022-10-22T23:02:10.646Z,2.13
2022-10-22T23:04:38.036Z,2.17
2022-10-22T23:07:05.456Z,2.40
2022-10-22T23:09:32.915Z,2.20
2022-10-22T23:12:00.445Z,2.30
2022-10-22T23:14:28.042Z,2.20
2022-10-22T23:16:55.679Z,2.47
2022-10-22T23:19:23.822Z,1.80
2022-10-22T23:21:52.445Z,1.73
2022-10-22T23:24:21.164Z,2.33
2022-10-22T23:26:49.617Z,1.97
2022-10-22T23:29:18.506Z,2.50
2022-10-22T23:31:46.211Z,2.30
2022-10-22T23:34:15.273Z,1.93
2022-10-22T23:36:42.714Z,2.37
2022-10-22T23:39:12.335Z,2.00
2022-10-22T23:41:39.858Z,2.10
2022-10-22T23:44:08.333Z,2.03
2022-10-22T23:46:36.076Z,1.83
2022-10-22T23:49:03.462Z,2.40
2022-10-22T23:51:30.809Z,2.43
2022-10-22T23:53:59.531Z,2.30
2022-10-22T23:56:27.399Z,2.50
2022-10-22T23:58:55.090Z,2.10
